createdAt,value
2015-12-11T00:00:53.360Z,3.4
2015-12-11T00:01:53.316Z,3.4
2015-12-11T00:02:53.256Z,3.4
2015-12-11T00:03:53.196Z,3.4
2015-12-11T00:04:53.136Z,3.4
2015-12-11T00:05:53.077Z,3.4
2015-12-11T00:06:53.017Z,3.4
2015-12-11T00:07:52.958Z,3.4
2015-12-11T00:08:52.898Z,3.4
2015-12-11T00:09:52.838Z,3.4
2015-12-11T00:10:52.779Z,3.4
2015-12-11T00:11:52.718Z,3.4
2015-12-11T00:12:52.674Z,3.4
2015-12-11T00:13:52.614Z,3.4
2015-12-11T00:14:52.554Z,3.4
2015-12-11T00:15:52.495Z,3.2
2015-12-11T00:16:52.432Z,3.2
2015-12-11T00:17:52.389Z,3.2
2015-12-11T00:18:52.329Z,3.2
2015-12-11T00:19:52.270Z,3.1
2015-12-11T00:20:52.209Z,3.1
2015-12-11T00:21:52.150Z,3.1
2015-12-11T00:22:52.090Z,3.1
2015-12-11T00:23:52.045Z,3.1
2015-12-11T00:24:51.986Z,3.1
2015-12-11T00:25:51.926Z,3
2015-12-11T00:26:51.867Z,3
2015-12-11T00:27:51.806Z,3
2015-12-11T00:28:51.747Z,3.1
2015-12-11T00:29:51.703Z,3.3
2015-12-11T00:30:51.643Z,3.4
2015-12-11T00:31:51.568Z,3.5
2015-12-11T00:32:51.508Z,3.6
2015-12-11T00:33:51.464Z,3.6
2015-12-11T00:34:51.404Z,3.6
2015-12-11T00:35:51.344Z,3.7
2015-12-11T00:36:51.300Z,3.8
2015-12-11T00:37:51.225Z,3.8
2015-12-11T00:38:51.165Z,3.8
2015-12-11T00:39:51.121Z,3.9
2015-12-11T00:40:51.061Z,3.8
2015-12-11T00:41:51.001Z,3.9
2015-12-11T00:42:50.942Z,3.8
2015-12-11T00:43:50.882Z,3.8
2015-12-11T00:44:50.822Z,3.8
2015-12-11T00:45:50.778Z,3.9
2015-12-11T00:46:50.719Z,3.8
2015-12-11T00:47:50.658Z,3.9
2015-12-11T00:48:50.599Z,3.9
2015-12-11T00:49:50.555Z,3.9
2015-12-11T00:50:50.495Z,3.9
2015-12-11T00:51:50.435Z,3.9
2015-12-11T00:52:50.375Z,3.9
2015-12-11T00:53:50.316Z,3.9
2015-12-11T00:54:50.272Z,3.9
2015-12-11T00:55:50.194Z,3.9
2015-12-11T00:56:50.150Z,3.9
2015-12-11T00:57:50.090Z,3.9
2015-12-11T00:58:50.030Z,3.8
2015-12-11T00:59:49.970Z,3.8
2015-12-11T01:00:49.911Z,3.8
2015-12-11T01:01:49.851Z,3.9
2015-12-11T01:02:49.806Z,3.9
2015-12-11T01:03:49.747Z,3.9
2015-12-11T01:04:49.687Z,3.9
2015-12-11T01:05:49.628Z,3.9
2015-12-11T01:06:49.567Z,4
2015-12-11T01:07:49.508Z,4
2015-12-11T01:08:49.464Z,3.9
2015-12-11T01:09:49.404Z,3.9
2015-12-11T01:10:49.345Z,3.8
2015-12-11T01:11:49.285Z,3.8
2015-12-11T01:12:49.240Z,3.8
2015-12-11T01:13:49.165Z,3.8
2015-12-11T01:14:49.121Z,3.9
2015-12-11T01:15:49.061Z,3.9
2015-12-11T01:16:49.001Z,3.9
2015-12-11T01:17:48.942Z,3.9
2015-12-11T01:18:48.897Z,3.9
2015-12-11T01:19:48.838Z,4
2015-12-11T01:20:48.778Z,3.9
2015-12-11T01:21:48.708Z,3.8
2015-12-11T01:22:48.630Z,3.8
2015-12-11T01:23:48.555Z,3.8
2015-12-11T01:24:48.496Z,3.8
2015-12-11T01:25:48.419Z,3.8
2015-12-11T01:26:48.354Z,3.8
2015-12-11T01:27:48.288Z,3.8
2015-12-11T01:28:48.223Z,3.7
2015-12-11T01:29:48.173Z,3.7
2015-12-11T01:30:48.111Z,3.7
2015-12-11T01:31:48.046Z,3.7
2015-12-11T01:32:47.984Z,3.6
2015-12-11T01:33:47.922Z,3.6
2015-12-11T01:34:47.861Z,3.6
2015-12-11T01:35:47.815Z,3.6
2015-12-11T01:36:47.753Z,3.6
2015-12-11T01:37:47.693Z,3.5
2015-12-11T01:38:47.632Z,3.5
2015-12-11T01:39:47.571Z,3.5
2015-12-11T01:40:47.511Z,3.5
2015-12-11T01:41:47.466Z,3.4
2015-12-11T01:42:47.407Z,3.4
2015-12-11T01:43:47.345Z,3.4
2015-12-11T01:44:47.286Z,3.5
2015-12-11T01:45:47.225Z,3.5
2015-12-11T01:46:47.166Z,3.6
2015-12-11T01:47:47.122Z,3.6
2015-12-11T01:48:47.062Z,3.6
2015-12-11T01:49:47.002Z,3.6
2015-12-11T01:50:46.942Z,3.7
2015-12-11T01:51:46.883Z,3.7
2015-12-11T01:52:46.822Z,3.7
2015-12-11T01:53:46.779Z,3.7
2015-12-11T01:54:46.719Z,3.7
2015-12-11T01:55:46.659Z,3.7
2015-12-11T01:56:46.600Z,3.7
2015-12-11T01:57:46.540Z,3.8
2015-12-11T01:58:46.496Z,3.8
2015-12-11T01:59:46.436Z,3.8
2015-12-11T02:00:46.361Z,3.8
2015-12-11T02:01:46.316Z,3.7
2015-12-11T02:02:46.258Z,3.8
2015-12-11T02:03:46.198Z,3.7
2015-12-11T02:04:46.154Z,3.7
2015-12-11T02:05:46.095Z,3.7
2015-12-11T02:06:46.019Z,3.7
2015-12-11T02:07:45.959Z,3.6
2015-12-11T02:08:45.915Z,3.6
2015-12-11T02:09:45.856Z,3.6
2015-12-11T02:10:45.795Z,3.4
2015-12-11T02:11:45.733Z,3.4
2015-12-11T02:12:45.673Z,3.5
2015-12-11T02:13:45.614Z,3.5
2015-12-11T02:14:45.569Z,3.5
2015-12-11T02:15:45.494Z,3.6
2015-12-11T02:16:45.434Z,3.6
2015-12-11T02:17:45.375Z,3.6
2015-12-11T02:18:45.330Z,3.6
2015-12-11T02:19:45.270Z,3.7
2015-12-11T02:20:45.210Z,3.6
2015-12-11T02:21:45.150Z,3.6
2015-12-11T02:22:45.107Z,3.6
2015-12-11T02:23:45.030Z,3.6
2015-12-11T02:24:44.988Z,3.5
2015-12-11T02:25:44.912Z,3.5
2015-12-11T02:26:44.868Z,3.6
2015-12-11T02:27:44.808Z,3.6
2015-12-11T02:28:44.749Z,3.5
2015-12-11T02:29:44.689Z,3.5
2015-12-11T02:30:44.629Z,3.5
2015-12-11T02:31:44.585Z,3.6
2015-12-11T02:32:44.509Z,3.5
2015-12-11T02:33:44.465Z,3.5
2015-12-11T02:34:44.405Z,3.5
2015-12-11T02:35:44.346Z,3.6
2015-12-11T02:36:44.286Z,3.6
2015-12-11T02:37:44.227Z,3.6
2015-12-11T02:38:44.166Z,3.6
2015-12-11T02:39:44.107Z,3.7
2015-12-11T02:40:44.063Z,3.7
2015-12-11T02:41:44.002Z,3.7
2015-12-11T02:42:43.944Z,3.8
2015-12-11T02:43:43.883Z,3.7
2015-12-11T02:44:43.824Z,3.7
2015-12-11T02:45:43.764Z,3.7
2015-12-11T02:46:43.720Z,3.7
2015-12-11T02:47:43.660Z,3.7
2015-12-11T02:48:43.600Z,3.7
2015-12-11T02:49:43.541Z,3.8
2015-12-11T02:50:43.478Z,3.7
2015-12-11T02:51:43.435Z,3.7
2015-12-11T02:52:43.359Z,3.8
2015-12-11T02:53:43.315Z,3.8
2015-12-11T02:54:43.255Z,3.9
2015-12-11T02:55:43.196Z,3.8
2015-12-11T02:56:43.135Z,3.7
2015-12-11T02:57:43.076Z,3.8
2015-12-11T02:58:43.015Z,3.8
2015-12-11T02:59:42.971Z,3.9
2015-12-11T03:00:42.913Z,3.8
2015-12-11T03:01:42.853Z,3.9
2015-12-11T03:02:42.793Z,3.8
2015-12-11T03:03:42.733Z,3.8
2015-12-11T03:04:42.674Z,3.8
2015-12-11T03:05:42.614Z,3.8
2015-12-11T03:06:42.570Z,3.8
2015-12-11T03:07:42.494Z,3.8
2015-12-11T03:08:42.450Z,3.8
2015-12-11T03:09:42.406Z,3.9
2015-12-11T03:10:42.330Z,3.9
2015-12-11T03:11:42.272Z,3.9
2015-12-11T03:12:42.211Z,3.8
2015-12-11T03:13:42.167Z,3.8
2015-12-11T03:14:42.108Z,3.9
2015-12-11T03:15:42.048Z,3.9
2015-12-11T03:16:41.988Z,3.9
2015-12-11T03:17:41.928Z,3.9
2015-12-11T03:18:41.869Z,3.9
2015-12-11T03:19:41.809Z,3.9
2015-12-11T03:20:41.750Z,3.8
2015-12-11T03:21:41.705Z,3.8
2015-12-11T03:22:41.646Z,3.9
2015-12-11T03:23:41.570Z,3.8
2015-12-11T03:24:41.526Z,3.8
2015-12-11T03:25:41.466Z,3.8
2015-12-11T03:26:41.407Z,3.8
2015-12-11T03:27:41.363Z,3.8
2015-12-11T03:28:41.287Z,3.9
2015-12-11T03:29:41.227Z,3.9
2015-12-11T03:30:41.183Z,3.9
2015-12-11T03:31:41.121Z,3.9
2015-12-11T03:32:41.060Z,3.9
2015-12-11T03:33:41.001Z,3.9
2015-12-11T03:34:40.941Z,3.9
2015-12-11T03:35:40.897Z,4
2015-12-11T03:36:40.837Z,3.9
2015-12-11T03:37:40.777Z,3.9
2015-12-11T03:38:40.718Z,3.9
2015-12-11T03:39:40.658Z,3.9
2015-12-11T03:40:40.599Z,3.8
2015-12-11T03:41:40.538Z,3.9
2015-12-11T03:42:40.494Z,3.9
2015-12-11T03:43:40.434Z,3.9
2015-12-11T03:44:40.375Z,3.9
2015-12-11T03:45:40.315Z,3.9
2015-12-11T03:46:40.255Z,3.9
2015-12-11T03:47:40.196Z,3.9
2015-12-11T03:48:40.152Z,3.9
2015-12-11T03:49:40.092Z,3.9
2015-12-11T03:50:40.017Z,4
2015-12-11T03:51:39.973Z,3.9
2015-12-11T03:52:39.912Z,3.9
2015-12-11T03:53:39.853Z,3.9
2015-12-11T03:54:39.794Z,3.9
2015-12-11T03:55:39.750Z,3.9
2015-12-11T03:56:39.674Z,4
2015-12-11T03:57:39.629Z,4
2015-12-11T03:58:39.570Z,4
2015-12-11T03:59:39.510Z,4
2015-12-11T04:00:39.451Z,4
2015-12-11T04:01:39.390Z,4
2015-12-11T04:02:39.534Z,3.9
2015-12-11T04:03:39.271Z,3.9
2015-12-11T04:04:39.243Z,3.9
2015-12-11T04:05:39.151Z,3.9
2015-12-11T04:06:39.108Z,3.9
2015-12-11T04:07:39.032Z,3.9
2015-12-11T04:08:38.988Z,3.8
2015-12-11T04:09:38.929Z,3.8
2015-12-11T04:10:38.866Z,3.8
2015-12-11T04:11:38.806Z,3.8
2015-12-11T04:12:38.746Z,3.8
2015-12-11T04:13:38.687Z,3.7
2015-12-11T04:14:38.626Z,3.7
2015-12-11T04:15:38.567Z,3.7
2015-12-11T04:16:38.507Z,3.7
2015-12-11T04:17:38.447Z,3.7
2015-12-11T04:18:38.404Z,3.8
2015-12-11T04:19:38.343Z,3.9
2015-12-11T04:20:38.284Z,3.9
2015-12-11T04:21:38.223Z,3.9
2015-12-11T04:22:38.164Z,3.9
2015-12-11T04:23:38.105Z,3.9
2015-12-11T04:24:38.045Z,3.9
2015-12-11T04:25:37.985Z,3.8
2015-12-11T04:26:37.925Z,3.8
2015-12-11T04:27:37.865Z,3.9
2015-12-11T04:28:37.806Z,3.9
2015-12-11T04:29:37.746Z,3.9
2015-12-11T04:30:37.702Z,3.9
2015-12-11T04:31:37.642Z,3.9
2015-12-11T04:32:37.583Z,3.9
2015-12-11T04:33:37.523Z,4
2015-12-11T04:34:37.464Z,4
2015-12-11T04:35:37.404Z,3.9
2015-12-11T04:36:37.344Z,3.9
2015-12-11T04:37:37.284Z,3.8
2015-12-11T04:38:37.239Z,3.9
2015-12-11T04:39:37.165Z,3.8
2015-12-11T04:40:37.120Z,3.9
2015-12-11T04:41:37.061Z,3.9
2015-12-11T04:42:37.001Z,3.9
2015-12-11T04:43:36.942Z,3.9
2015-12-11T04:44:36.881Z,3.8
2015-12-11T04:45:36.822Z,3.8
2015-12-11T04:46:36.761Z,3.9
2015-12-11T04:47:36.703Z,3.9
2015-12-11T04:48:36.642Z,3.9
2015-12-11T04:49:36.598Z,3.9
2015-12-11T04:50:36.520Z,3.9
2015-12-11T04:51:36.475Z,4
2015-12-11T04:52:36.417Z,4
2015-12-11T04:53:36.356Z,4
2015-12-11T04:54:36.297Z,4
2015-12-11T04:55:36.237Z,4
2015-12-11T04:56:36.178Z,4
2015-12-11T04:57:36.117Z,4
2015-12-11T04:58:36.058Z,4
2015-12-11T04:59:35.998Z,4
2015-12-11T05:00:35.938Z,4
2015-12-11T05:01:35.894Z,3.9
2015-12-11T05:02:35.834Z,3.9
2015-12-11T05:03:35.774Z,4
2015-12-11T05:04:35.714Z,4
2015-12-11T05:05:35.655Z,4
2015-12-11T05:06:35.595Z,4
2015-12-11T05:07:35.536Z,4
2015-12-11T05:08:35.475Z,4
2015-12-11T05:09:35.432Z,4.1
2015-12-11T05:10:35.372Z,4.1
2015-12-11T05:11:35.313Z,4
2015-12-11T05:12:35.253Z,4
2015-12-11T05:13:35.193Z,4
2015-12-11T05:14:35.133Z,3.9
2015-12-11T05:15:35.074Z,4
2015-12-11T05:16:35.029Z,4
2015-12-11T05:17:34.955Z,4
2015-12-11T05:18:34.894Z,4.1
2015-12-11T05:19:34.850Z,4.1
2015-12-11T05:20:34.790Z,4.1
2015-12-11T05:21:34.730Z,4.1
2015-12-11T05:22:34.671Z,4.1
2015-12-11T05:23:34.611Z,4.1
2015-12-11T05:24:34.552Z,4.2
2015-12-11T05:25:34.492Z,4.2
2015-12-11T05:26:34.432Z,4.1
2015-12-11T05:27:34.388Z,4.1
2015-12-11T05:28:34.325Z,4.1
2015-12-11T05:29:34.250Z,4.1
2015-12-11T05:30:34.205Z,4.1
2015-12-11T05:31:34.146Z,4.2
2015-12-11T05:32:34.086Z,4.3
2015-12-11T05:33:34.027Z,4.2
2015-12-11T05:34:33.967Z,4.3
2015-12-11T05:35:33.907Z,4.2
2015-12-11T05:36:33.847Z,4.3
2015-12-11T05:37:33.788Z,4.3
2015-12-11T05:38:33.743Z,4.2
2015-12-11T05:39:33.669Z,4.2
2015-12-11T05:40:33.608Z,4.2
2015-12-11T05:41:33.564Z,4.2
2015-12-11T05:42:33.504Z,4.2
2015-12-11T05:43:33.445Z,4.2
2015-12-11T05:44:33.385Z,4.2
2015-12-11T05:45:33.325Z,4.2
2015-12-11T05:46:33.266Z,4.2
2015-12-11T05:47:33.205Z,4.2
2015-12-11T05:48:33.147Z,4.2
2015-12-11T05:49:33.086Z,4.2
2015-12-11T05:50:33.074Z,4.1
2015-12-11T05:51:32.983Z,4.1
2015-12-11T05:52:32.923Z,4.2
2015-12-11T05:53:32.863Z,4.2
2015-12-11T05:54:32.804Z,4.2
2015-12-11T05:55:32.743Z,4.2
2015-12-11T05:56:32.746Z,4.1
2015-12-11T05:57:32.624Z,4.1
2015-12-11T05:58:32.565Z,4.2
2015-12-11T05:59:32.505Z,4.2
2015-12-11T06:00:32.445Z,4.2
2015-12-11T06:01:32.401Z,4.3
2015-12-11T06:02:32.326Z,4.3
2015-12-11T06:03:32.282Z,4.3
2015-12-11T06:04:32.206Z,4.3
2015-12-11T06:05:32.162Z,4.3
2015-12-11T06:06:32.099Z,4.3
2015-12-11T06:07:32.040Z,4.3
2015-12-11T06:08:31.996Z,4.3
2015-12-11T06:09:31.935Z,4.3
2015-12-11T06:10:31.875Z,4.3
2015-12-11T06:11:31.816Z,4.3
2015-12-11T06:12:31.756Z,4.4
2015-12-11T06:13:31.696Z,4.4
2015-12-11T06:14:31.652Z,4.4
2015-12-11T06:15:31.577Z,4.4
2015-12-11T06:16:31.518Z,4.4
2015-12-11T06:17:31.457Z,4.4
2015-12-11T06:18:31.413Z,4.4
2015-12-11T06:19:31.354Z,4.3
2015-12-11T06:20:31.294Z,4.3
2015-12-11T06:21:31.235Z,4.4
2015-12-11T06:22:31.174Z,4.4
2015-12-11T06:23:31.131Z,4.4
2015-12-11T06:24:31.070Z,4.4
2015-12-11T06:25:31.011Z,4.4
2015-12-11T06:26:30.951Z,4.4
2015-12-11T06:27:30.907Z,4.5
2015-12-11T06:28:30.831Z,4.5
2015-12-11T06:29:30.788Z,4.5
2015-12-11T06:30:30.728Z,4.4
2015-12-11T06:31:30.667Z,4.4
2015-12-11T06:32:30.609Z,4.5
2015-12-11T06:33:30.564Z,4.4
2015-12-11T06:34:30.504Z,4.5
2015-12-11T06:35:30.445Z,4.5
2015-12-11T06:36:30.384Z,4.5
2015-12-11T06:37:30.326Z,4.5
2015-12-11T06:38:30.265Z,4.5
2015-12-11T06:39:30.221Z,4.5
2015-12-11T06:40:30.161Z,4.5
2015-12-11T06:41:30.101Z,4.5
2015-12-11T06:42:30.042Z,4.5
2015-12-11T06:43:29.998Z,4.5
2015-12-11T06:44:29.938Z,4.5
2015-12-11T06:45:29.894Z,4.5
2015-12-11T06:46:29.816Z,4.5
2015-12-11T06:47:29.773Z,4.5
2015-12-11T06:48:29.712Z,4.5
2015-12-11T06:49:29.653Z,4.5
2015-12-11T06:50:29.608Z,4.5
2015-12-11T06:51:29.548Z,4.5
2015-12-11T06:52:29.489Z,4.5
2015-12-11T06:53:29.429Z,4.5
2015-12-11T06:54:29.369Z,4.5
2015-12-11T06:55:29.326Z,4.5
2015-12-11T06:56:29.265Z,4.4
2015-12-11T06:57:29.206Z,4.4
2015-12-11T06:58:29.146Z,4.4
2015-12-11T06:59:29.086Z,4.4
2015-12-11T07:00:29.096Z,4.4
2015-12-11T07:01:28.974Z,4.4
2015-12-11T07:02:28.913Z,4.4
2015-12-11T07:03:28.869Z,4.4
2015-12-11T07:04:28.810Z,4.4
2015-12-11T07:05:28.792Z,4.4
2015-12-11T07:06:28.724Z,4.4
2015-12-11T07:07:28.664Z,4.4
2015-12-11T07:08:28.610Z,4.5
2015-12-11T07:09:28.816Z,4.5
2015-12-11T07:10:28.522Z,4.5
2015-12-11T07:11:28.416Z,4.5
2015-12-11T07:12:28.355Z,4.4
2015-12-11T07:13:28.296Z,4.4
2015-12-11T07:14:28.252Z,4.4
2015-12-11T07:15:28.192Z,4.4
2015-12-11T07:16:28.132Z,4.4
2015-12-11T07:17:28.072Z,4.4
2015-12-11T07:18:28.013Z,4.5
2015-12-11T07:19:27.952Z,4.5
2015-12-11T07:20:27.909Z,4.5
2015-12-11T07:21:27.846Z,4.6
2015-12-11T07:22:27.788Z,4.6
2015-12-11T07:23:27.742Z,4.6
2015-12-11T07:24:27.682Z,4.6
2015-12-11T07:25:27.623Z,4.6
2015-12-11T07:26:27.563Z,4.6
2015-12-11T07:27:27.504Z,4.6
2015-12-11T07:28:27.443Z,4.6
2015-12-11T07:29:27.384Z,4.6
2015-12-11T07:30:27.324Z,4.6
2015-12-11T07:31:27.265Z,4.5
2015-12-11T07:32:27.221Z,4.6
2015-12-11T07:33:27.146Z,4.6
2015-12-11T07:34:27.101Z,4.7
2015-12-11T07:35:27.041Z,4.5
2015-12-11T07:36:26.982Z,4.5
2015-12-11T07:37:26.922Z,4.6
2015-12-11T07:38:26.863Z,4.6
2015-12-11T07:39:26.802Z,4.6
2015-12-11T07:40:26.742Z,4.6
2015-12-11T07:41:26.683Z,4.6
2015-12-11T07:42:26.638Z,4.6
2015-12-11T07:43:26.563Z,4.6
2015-12-11T07:44:26.519Z,4.5
2015-12-11T07:45:26.459Z,4.6
2015-12-11T07:46:26.416Z,4.6
2015-12-11T07:47:26.340Z,4.7
2015-12-11T07:48:26.280Z,4.6
2015-12-11T07:49:26.220Z,4.6
2015-12-11T07:50:26.160Z,4.6
2015-12-11T07:51:26.101Z,4.6
2015-12-11T07:52:26.057Z,4.5
2015-12-11T07:53:25.998Z,4.5
2015-12-11T07:54:25.937Z,4.6
2015-12-11T07:55:25.878Z,4.6
2015-12-11T07:56:25.818Z,4.6
2015-12-11T07:57:25.759Z,4.6
2015-12-11T07:58:25.715Z,4.6
2015-12-11T07:59:25.637Z,4.6
2015-12-11T08:00:25.592Z,4.6
2015-12-11T08:01:25.532Z,4.6
2015-12-11T08:02:25.472Z,4.6
2015-12-11T08:03:25.413Z,4.6
2015-12-11T08:04:25.353Z,4.6
2015-12-11T08:05:25.292Z,4.7
2015-12-11T08:06:25.248Z,4.7
2015-12-11T08:07:25.189Z,4.7
2015-12-11T08:08:25.129Z,4.7
2015-12-11T08:09:25.085Z,4.7
2015-12-11T08:10:25.010Z,4.7
2015-12-11T08:11:24.950Z,4.7
2015-12-11T08:12:24.891Z,4.7
2015-12-11T08:13:24.831Z,4.7
2015-12-11T08:14:24.786Z,4.7
2015-12-11T08:15:24.727Z,4.7
2015-12-11T08:16:24.667Z,4.8
2015-12-11T08:17:24.607Z,4.7
2015-12-11T08:18:24.547Z,4.7
2015-12-11T08:19:24.504Z,4.8
2015-12-11T08:20:24.444Z,4.8
2015-12-11T08:21:24.384Z,4.8
2015-12-11T08:22:24.325Z,4.8
2015-12-11T08:23:24.265Z,4.8
2015-12-11T08:24:24.206Z,4.7
2015-12-11T08:25:24.161Z,4.7
2015-12-11T08:26:24.336Z,4.8
2015-12-11T08:27:24.042Z,4.8
2015-12-11T08:28:23.981Z,4.8
2015-12-11T08:29:23.922Z,4.8
2015-12-11T08:30:23.862Z,4.8
2015-12-11T08:31:23.818Z,4.8
2015-12-11T08:32:23.758Z,4.9
2015-12-11T08:33:23.699Z,4.8
2015-12-11T08:34:23.639Z,4.8
2015-12-11T08:35:23.579Z,4.8
2015-12-11T08:36:23.519Z,4.8
2015-12-11T08:37:23.476Z,4.8
2015-12-11T08:38:23.415Z,4.8
2015-12-11T08:39:23.353Z,4.8
2015-12-11T08:40:23.293Z,4.9
2015-12-11T08:41:23.233Z,4.9
2015-12-11T08:42:23.173Z,4.9
2015-12-11T08:43:23.114Z,4.9
2015-12-11T08:44:23.070Z,4.9
2015-12-11T08:45:23.010Z,4.9
2015-12-11T08:46:22.950Z,5
2015-12-11T08:47:22.890Z,5
2015-12-11T08:48:22.830Z,5
2015-12-11T08:49:22.771Z,5.1
2015-12-11T08:50:22.711Z,5.1
2015-12-11T08:51:22.667Z,5.1
2015-12-11T08:52:22.607Z,5
2015-12-11T08:53:22.547Z,5
2015-12-11T08:54:22.489Z,5
2015-12-11T08:55:22.427Z,5
2015-12-11T08:56:22.369Z,5.1
2015-12-11T08:57:22.324Z,5.1
2015-12-11T08:58:22.249Z,5.1
2015-12-11T08:59:22.205Z,5.1
2015-12-11T09:00:22.144Z,5
2015-12-11T09:01:22.086Z,5
2015-12-11T09:02:22.035Z,5
2015-12-11T09:03:21.976Z,5
2015-12-11T09:04:21.916Z,5
2015-12-11T09:05:21.857Z,5.1
2015-12-11T09:06:21.796Z,5.1
2015-12-11T09:07:21.752Z,5.2
2015-12-11T09:08:21.693Z,5.2
2015-12-11T09:09:21.632Z,5.2
2015-12-11T09:10:21.573Z,5.2
2015-12-11T09:11:21.513Z,5.2
2015-12-11T09:12:21.454Z,5.2
2015-12-11T09:13:21.410Z,5.2
2015-12-11T09:14:21.349Z,5.1
2015-12-11T09:15:21.290Z,5.2
2015-12-11T09:16:21.230Z,5.2
2015-12-11T09:17:21.171Z,5.2
2015-12-11T09:18:21.108Z,5.2
2015-12-11T09:19:21.063Z,5.1
2015-12-11T09:20:21.004Z,5.2
2015-12-11T09:21:20.944Z,5.2
2015-12-11T09:22:20.885Z,5.2
2015-12-11T09:23:20.840Z,5.2
2015-12-11T09:24:20.781Z,5.2
2015-12-11T09:25:20.720Z,5.2
2015-12-11T09:26:20.662Z,5.2
2015-12-11T09:27:20.601Z,5.2
2015-12-11T09:28:20.542Z,5.3
2015-12-11T09:29:20.482Z,5.3
2015-12-11T09:30:20.423Z,5.3
2015-12-11T09:31:20.362Z,5.2
2015-12-11T09:32:20.318Z,5.3
2015-12-11T09:33:20.259Z,5.3
2015-12-11T09:34:20.199Z,5.3
2015-12-11T09:35:20.140Z,5.3
2015-12-11T09:36:20.095Z,5.3
2015-12-11T09:37:20.020Z,5.3
2015-12-11T09:38:19.975Z,5.3
2015-12-11T09:39:19.916Z,5.3
2015-12-11T09:40:19.856Z,5.3
2015-12-11T09:41:19.796Z,5.3
2015-12-11T09:42:19.737Z,5.3
2015-12-11T09:43:19.693Z,5.2
2015-12-11T09:44:19.632Z,5.3
2015-12-11T09:45:19.573Z,5.3
2015-12-11T09:46:19.513Z,5.3
2015-12-11T09:47:19.453Z,5.3
2015-12-11T09:48:19.410Z,5.4
2015-12-11T09:49:19.350Z,5.4
2015-12-11T09:50:19.290Z,5.3
2015-12-11T09:51:19.246Z,5.4
2015-12-11T09:52:19.170Z,5.4
2015-12-11T09:53:19.126Z,5.5
2015-12-11T09:54:19.067Z,5.4
2015-12-11T09:55:19.007Z,5.4
2015-12-11T09:56:18.945Z,5.4
2015-12-11T09:57:18.884Z,5.4
2015-12-11T09:58:18.825Z,5.3
2015-12-11T09:59:18.781Z,5.3
2015-12-11T10:00:18.720Z,5.4
2015-12-11T10:01:18.661Z,5.4
2015-12-11T10:02:18.601Z,5.4
2015-12-11T10:03:18.542Z,5.4
2015-12-11T10:04:18.481Z,5.4
2015-12-11T10:05:18.438Z,5.3
2015-12-11T10:06:18.378Z,5.4
2015-12-11T10:07:18.317Z,5.4
2015-12-11T10:08:18.258Z,5.4
2015-12-11T10:09:18.215Z,5.5
2015-12-11T10:10:18.155Z,5.4
2015-12-11T10:11:18.094Z,5.4
2015-12-11T10:12:18.036Z,5.4
2015-12-11T10:13:17.975Z,5.4
2015-12-11T10:14:17.916Z,5.4
2015-12-11T10:15:17.872Z,5.4
2015-12-11T10:16:17.812Z,5.5
2015-12-11T10:17:17.753Z,5.5
2015-12-11T10:18:17.692Z,5.4
2015-12-11T10:19:17.648Z,5.5
2015-12-11T10:20:17.604Z,5.5
2015-12-11T10:21:17.529Z,5.5
2015-12-11T10:22:17.469Z,5.5
2015-12-11T10:23:17.409Z,5.4
2015-12-11T10:24:17.350Z,5.4
2015-12-11T10:25:17.306Z,5.4
2015-12-11T10:26:17.245Z,5.5
2015-12-11T10:27:17.184Z,5.5
2015-12-11T10:28:17.112Z,5.5
2015-12-11T10:29:17.040Z,5.5
2015-12-11T10:30:16.983Z,5.5
2015-12-11T10:31:16.912Z,5.5
2015-12-11T10:32:16.842Z,5.4
2015-12-11T10:33:16.778Z,5.4
2015-12-11T10:34:16.713Z,5.4
2015-12-11T10:35:16.651Z,5.4
2015-12-11T10:36:16.586Z,5.4
2015-12-11T10:37:16.537Z,5.4
2015-12-11T10:38:16.474Z,5.4
2015-12-11T10:39:16.412Z,5.4
2015-12-11T10:40:16.351Z,5.5
2015-12-11T10:41:16.290Z,5.5
2015-12-11T10:42:16.244Z,5.5
2015-12-11T10:43:16.184Z,5.5
2015-12-11T10:44:16.123Z,5.5
2015-12-11T10:45:16.063Z,5.5
2015-12-11T10:46:16.003Z,5.5
2015-12-11T10:47:15.958Z,5.6
2015-12-11T10:48:15.899Z,5.6
2015-12-11T10:49:15.838Z,5.5
2015-12-11T10:50:15.778Z,5.5
2015-12-11T10:51:15.718Z,5.5
2015-12-11T10:52:15.815Z,5.5
2015-12-11T10:53:15.770Z,5.5
2015-12-11T10:54:15.680Z,5.5
2015-12-11T10:55:15.495Z,5.5
2015-12-11T10:56:15.435Z,5.5
2015-12-11T10:57:15.375Z,5.5
2015-12-11T10:58:15.331Z,5.5
2015-12-11T10:59:15.272Z,5.5
2015-12-11T11:00:15.211Z,5.4
2015-12-11T11:01:15.152Z,5.4
2015-12-11T11:02:15.108Z,5.4
2015-12-11T11:03:15.047Z,5.5
2015-12-11T11:04:14.989Z,5.4
2015-12-11T11:05:14.928Z,5.4
2015-12-11T11:06:14.869Z,5.4
2015-12-11T11:07:14.809Z,5.4
2015-12-11T11:08:14.764Z,5.5
2015-12-11T11:09:14.705Z,5.5
2015-12-11T11:10:14.645Z,5.4
2015-12-11T11:11:14.602Z,5.5
2015-12-11T11:12:14.526Z,5.5
2015-12-11T11:13:14.482Z,5.5
2015-12-11T11:14:14.438Z,5.5
2015-12-11T11:15:14.360Z,5.5
2015-12-11T11:16:14.299Z,5.5
2015-12-11T11:17:14.255Z,5.5
2015-12-11T11:18:14.195Z,5.4
2015-12-11T11:19:14.135Z,5.4
2015-12-11T11:20:14.077Z,5.4
2015-12-11T11:21:14.017Z,5.3
2015-12-11T11:22:13.972Z,5.4
2015-12-11T11:23:13.913Z,5.3
2015-12-11T11:24:13.853Z,5.4
2015-12-11T11:25:13.793Z,5.4
2015-12-11T11:26:13.733Z,5.4
2015-12-11T11:27:13.674Z,5.4
2015-12-11T11:28:13.630Z,5.4
2015-12-11T11:29:13.570Z,5.4
2015-12-11T11:30:13.510Z,5.4
2015-12-11T11:31:13.450Z,5.4
2015-12-11T11:32:13.390Z,5.3
2015-12-11T11:33:13.346Z,5.4
2015-12-11T11:34:13.287Z,5.4
2015-12-11T11:35:13.226Z,5.5
2015-12-11T11:36:13.167Z,5.5
2015-12-11T11:37:13.107Z,5.5
2015-12-11T11:38:13.063Z,5.5
2015-12-11T11:39:13.004Z,5.5
2015-12-11T11:40:12.959Z,5.5
2015-12-11T11:41:12.884Z,5.4
2015-12-11T11:42:12.824Z,5.4
2015-12-11T11:43:12.780Z,5.4
2015-12-11T11:44:12.721Z,5.4
2015-12-11T11:45:12.661Z,5.4
2015-12-11T11:46:12.601Z,5.4
2015-12-11T11:47:12.541Z,5.5
2015-12-11T11:48:12.497Z,5.4
2015-12-11T11:49:12.438Z,5.5
2015-12-11T11:50:12.377Z,5.4
2015-12-11T11:51:12.319Z,5.4
2015-12-11T11:52:12.257Z,5.5
2015-12-11T11:53:12.214Z,5.5
2015-12-11T11:54:12.151Z,5.4
2015-12-11T11:55:12.092Z,5.4
2015-12-11T11:56:12.032Z,5.4
2015-12-11T11:57:11.972Z,5.4
2015-12-11T11:58:11.928Z,5.4
2015-12-11T11:59:11.915Z,5.4
2015-12-11T12:00:11.812Z,5.5
2015-12-11T12:01:11.757Z,5.4
2015-12-11T12:02:11.714Z,5.5
2015-12-11T12:03:11.638Z,5.5
2015-12-11T12:04:11.579Z,5.5
2015-12-11T12:05:11.534Z,5.4
2015-12-11T12:06:11.474Z,5.4
2015-12-11T12:07:11.415Z,5.5
2015-12-11T12:08:11.355Z,5.5
2015-12-11T12:09:11.296Z,5.5
2015-12-11T12:10:11.235Z,5.4
2015-12-11T12:11:11.191Z,5.5
2015-12-11T12:12:11.132Z,5.5
2015-12-11T12:13:11.072Z,5.5
2015-12-11T12:14:11.012Z,5.5
2015-12-11T12:15:10.968Z,5.4
2015-12-11T12:16:10.893Z,5.4
2015-12-11T12:17:10.849Z,5.4
2015-12-11T12:18:10.788Z,5.5
2015-12-11T12:19:10.729Z,5.5
2015-12-11T12:20:10.668Z,5.5
2015-12-11T12:21:10.626Z,5.5
2015-12-11T12:22:10.565Z,5.5
2015-12-11T12:23:10.506Z,5.6
2015-12-11T12:24:10.446Z,5.5
2015-12-11T12:25:10.387Z,5.5
2015-12-11T12:26:10.342Z,5.5
2015-12-11T12:27:10.282Z,5.6
2015-12-11T12:28:10.223Z,5.6
2015-12-11T12:29:10.178Z,5.6
2015-12-11T12:30:10.118Z,5.6
2015-12-11T12:31:10.059Z,5.6
2015-12-11T12:32:10.000Z,5.6
2015-12-11T12:33:09.955Z,5.6
2015-12-11T12:34:09.895Z,5.6
2015-12-11T12:35:09.832Z,5.6
2015-12-11T12:36:09.773Z,5.6
2015-12-11T12:37:09.713Z,5.6
2015-12-11T12:38:09.654Z,5.6
2015-12-11T12:39:09.610Z,5.6
2015-12-11T12:40:09.550Z,5.6
2015-12-11T12:41:09.490Z,5.6
2015-12-11T12:42:09.431Z,5.6
2015-12-11T12:43:09.371Z,5.6
2015-12-11T12:44:09.326Z,5.6
2015-12-11T12:45:09.267Z,5.7
2015-12-11T12:46:09.207Z,5.6
2015-12-11T12:47:09.148Z,5.6
2015-12-11T12:48:09.087Z,5.6
2015-12-11T12:49:09.043Z,5.7
2015-12-11T12:50:08.984Z,5.7
2015-12-11T12:51:08.923Z,5.7
2015-12-11T12:52:08.864Z,5.7
2015-12-11T12:53:08.804Z,5.7
2015-12-11T12:54:08.759Z,5.7
2015-12-11T12:55:08.701Z,5.7
2015-12-11T12:56:08.640Z,5.7
2015-12-11T12:57:08.581Z,5.7
2015-12-11T12:58:08.536Z,5.7
2015-12-11T12:59:08.478Z,5.7
2015-12-11T13:00:08.418Z,5.7
2015-12-11T13:01:08.358Z,5.8
2015-12-11T13:02:08.314Z,5.7
2015-12-11T13:03:08.253Z,5.7
2015-12-11T13:04:08.195Z,5.7
2015-12-11T13:05:08.134Z,5.7
2015-12-11T13:06:08.075Z,5.7
2015-12-11T13:07:08.015Z,5.7
2015-12-11T13:08:07.970Z,5.7
2015-12-11T13:09:07.911Z,5.7
2015-12-11T13:10:07.945Z,5.6
2015-12-11T13:11:07.792Z,5.7
2015-12-11T13:12:07.731Z,5.7
2015-12-11T13:13:07.687Z,5.7
2015-12-11T13:14:07.628Z,5.7
2015-12-11T13:15:07.565Z,5.7
2015-12-11T13:16:07.522Z,5.7
2015-12-11T13:17:07.461Z,5.7
2015-12-11T13:18:07.402Z,5.7
2015-12-11T13:19:07.342Z,5.8
2015-12-11T13:20:07.283Z,5.8
2015-12-11T13:21:07.239Z,5.8
2015-12-11T13:22:07.178Z,5.8
2015-12-11T13:23:07.119Z,5.8
2015-12-11T13:24:07.058Z,5.8
2015-12-11T13:25:07.014Z,5.9
2015-12-11T13:26:06.955Z,5.9
2015-12-11T13:27:06.895Z,5.9
2015-12-11T13:28:06.836Z,5.8
2015-12-11T13:29:06.776Z,5.8
2015-12-11T13:30:06.731Z,5.8
2015-12-11T13:31:06.672Z,5.8
2015-12-11T13:32:06.612Z,5.8
2015-12-11T13:33:06.553Z,5.8
2015-12-11T13:34:06.508Z,5.8
2015-12-11T13:35:06.464Z,5.8
2015-12-11T13:36:06.389Z,5.8
2015-12-11T13:37:06.329Z,5.8
2015-12-11T13:38:06.285Z,5.9
2015-12-11T13:39:06.225Z,5.9
2015-12-11T13:40:06.181Z,5.9
2015-12-11T13:41:06.106Z,5.9
2015-12-11T13:42:06.062Z,5.9
2015-12-11T13:43:06.002Z,6
2015-12-11T13:44:05.942Z,6
2015-12-11T13:45:05.898Z,6
2015-12-11T13:46:05.839Z,6
2015-12-11T13:47:05.778Z,6
2015-12-11T13:48:05.719Z,6
2015-12-11T13:49:05.675Z,6
2015-12-11T13:50:05.631Z,6